createdAt,value
2023-04-12T00:02:14.035Z,12.30
2023-04-12T00:04:44.123Z,12.40
2023-04-12T00:07:12.749Z,12.40
2023-04-12T00:09:41.217Z,12.50
2023-04-12T00:12:09.722Z,12.50
2023-04-12T00:14:38.297Z,12.50
2023-04-12T00:17:06.802Z,12.60
2023-04-12T00:19:35.435Z,12.60
2023-04-12T00:22:05.273Z,12.70
2023-04-12T00:24:33.596Z,12.70
2023-04-12T00:27:02.658Z,12.70
2023-04-12T00:29:31.200Z,12.60
2023-04-12T00:32:01.536Z,12.70
2023-04-12T00:34:30.002Z,12.70
2023-04-12T00:36:58.458Z,12.60
2023-04-12T00:39:28.583Z,12.60
2023-04-12T00:41:57.102Z,12.70
2023-04-12T00:44:25.900Z,12.60
2023-04-12T00:46:54.489Z,12.70
2023-04-12T00:49:22.946Z,12.70
2023-04-12T00:51:51.473Z,12.70
2023-04-12T00:54:20.464Z,12.70
2023-04-12T00:56:50.782Z,12.80
2023-04-12T00:59:19.171Z,12.80
2023-04-12T01:01:47.712Z,12.80
2023-04-12T01:04:16.681Z,12.90
2023-04-12T01:06:52.636Z,12.90
2023-04-12T01:09:24.823Z,12.80
2023-04-12T01:11:59.942Z,12.90
2023-04-12T01:14:30.817Z,12.90
2023-04-12T01:17:02.633Z,12.80
2023-04-12T01:19:39.575Z,12.80
2023-04-12T01:22:13.789Z,12.90
2023-04-12T01:24:48.992Z,12.90
2023-04-12T01:27:29.920Z,12.80
2023-04-12T01:29:59.397Z,12.90
2023-04-12T01:32:28.149Z,12.90
2023-04-12T01:34:57.074Z,12.90
2023-04-12T01:37:25.674Z,12.90
2023-04-12T01:39:54.082Z,12.90
2023-04-12T01:42:22.596Z,12.90
2023-04-12T01:44:52.631Z,12.90
2023-04-12T01:47:21.118Z,12.80
2023-04-12T01:49:54.713Z,12.80
2023-04-12T01:52:24.363Z,12.90
2023-04-12T01:54:56.173Z,12.80
2023-04-12T01:57:24.901Z,12.80
2023-04-12T01:59:55.204Z,12.80
2023-04-12T02:02:23.740Z,12.70
2023-04-12T02:04:52.592Z,12.70
2023-04-12T02:07:21.633Z,12.80
2023-04-12T02:09:50.079Z,12.70
2023-04-12T02:12:18.460Z,12.70
2023-04-12T02:14:47.146Z,12.70
2023-04-12T02:17:17.865Z,12.70
2023-04-12T02:19:47.367Z,12.70
2023-04-12T02:22:15.946Z,12.60
2023-04-12T02:24:44.348Z,12.70
2023-04-12T02:27:12.892Z,12.70
2023-04-12T02:29:41.416Z,12.70
2023-04-12T02:32:09.933Z,12.70
2023-04-12T02:34:39.962Z,12.80
2023-04-12T02:37:09.056Z,12.70
2023-04-12T02:39:37.483Z,12.70
2023-04-12T02:42:06.008Z,12.70
2023-04-12T02:44:34.330Z,12.70
2023-04-12T02:47:02.804Z,12.70
2023-04-12T02:49:31.313Z,12.60
2023-04-12T02:52:02.484Z,12.70
2023-04-12T02:54:31.011Z,12.60
2023-04-12T02:56:59.589Z,12.50
2023-04-12T02:59:29.001Z,12.50
2023-04-12T03:01:57.582Z,12.50
2023-04-12T03:04:30.163Z,12.50
2023-04-12T03:06:58.920Z,12.50
2023-04-12T03:09:28.756Z,12.50
2023-04-12T03:11:57.210Z,12.50
2023-04-12T03:14:25.708Z,12.50
2023-04-12T03:16:54.303Z,12.40
2023-04-12T03:19:22.803Z,12.40
2023-04-12T03:21:51.334Z,12.40
2023-04-12T03:24:19.757Z,12.40
2023-04-12T03:26:50.253Z,12.40
2023-04-12T03:29:18.820Z,12.40
2023-04-12T03:31:47.200Z,12.40
2023-04-12T03:34:15.714Z,12.50
2023-04-12T03:36:44.326Z,12.50
2023-04-12T03:39:12.835Z,12.50
2023-04-12T03:41:41.262Z,12.40
2023-04-12T03:44:11.094Z,12.40
2023-04-12T03:46:39.833Z,12.40
2023-04-12T03:49:08.317Z,12.40
2023-04-12T03:51:36.836Z,12.50
2023-04-12T03:54:06.148Z,12.50
2023-04-12T03:56:34.638Z,12.50
2023-04-12T03:59:03.169Z,12.40
2023-04-12T04:01:33.259Z,12.40
2023-04-12T04:04:02.161Z,12.40
2023-04-12T04:06:31.171Z,12.30
2023-04-12T04:08:59.664Z,12.30
2023-04-12T04:11:28.215Z,12.30
2023-04-12T04:13:56.946Z,12.30
2023-04-12T04:16:25.640Z,12.30
2023-04-12T04:18:55.619Z,12.30
2023-04-12T04:21:24.085Z,12.20
2023-04-12T04:23:52.839Z,12.20
2023-04-12T04:26:33.533Z,12.10
2023-04-12T04:29:05.159Z,12.20
2023-04-12T04:31:36.564Z,12.10
2023-04-12T04:34:06.691Z,12.10
2023-04-12T04:36:36.630Z,12.10
2023-04-12T04:39:05.460Z,12.10
2023-04-12T04:41:39.562Z,12.10
2023-04-12T04:44:10.460Z,12.10
2023-04-12T04:46:39.726Z,12.10
2023-04-12T04:49:09.547Z,12.10
2023-04-12T04:51:38.040Z,12.20
2023-04-12T04:54:06.925Z,12.20
2023-04-12T04:56:35.406Z,12.20
2023-04-12T04:59:03.883Z,12.20
2023-04-12T05:01:36.178Z,12.20
2023-04-12T05:04:04.894Z,12.20
2023-04-12T05:06:34.916Z,12.20
2023-04-12T05:09:04.162Z,12.30
2023-04-12T05:11:32.543Z,12.30
2023-04-12T05:14:01.496Z,12.30
2023-04-12T05:16:29.906Z,12.30
2023-04-12T05:18:58.572Z,12.30
2023-04-12T05:21:27.360Z,12.30
2023-04-12T05:23:57.387Z,12.20
2023-04-12T05:26:25.996Z,12.20
2023-04-12T05:28:54.450Z,12.20
2023-04-12T05:31:23.323Z,12.20
2023-04-12T05:33:51.920Z,12.10
2023-04-12T05:36:20.300Z,12.10
2023-04-12T05:38:48.774Z,12.20
2023-04-12T05:41:18.570Z,12.20
2023-04-12T05:43:46.953Z,12.20
2023-04-12T05:46:15.538Z,12.20
2023-04-12T05:48:43.921Z,12.20
2023-04-12T05:51:12.421Z,12.20
2023-04-12T05:53:41.150Z,12.30
2023-04-12T05:56:09.941Z,12.30
2023-04-12T05:58:39.766Z,12.40
2023-04-12T06:01:08.196Z,12.50
2023-04-12T06:03:38.186Z,12.50
2023-04-12T06:06:06.971Z,12.60
2023-04-12T06:08:36.586Z,12.60
2023-04-12T06:11:05.195Z,12.60
2023-04-12T06:13:33.560Z,12.70
2023-04-12T06:16:03.356Z,12.80
2023-04-12T06:18:32.411Z,12.90
2023-04-12T06:21:01.415Z,13.00
2023-04-12T06:23:29.865Z,13.10
2023-04-12T06:25:58.350Z,13.10
2023-04-12T06:28:26.820Z,13.20
2023-04-12T06:30:55.919Z,13.30
2023-04-12T06:33:26.218Z,13.30
2023-04-12T06:35:54.607Z,13.30
2023-04-12T06:38:23.100Z,13.40
2023-04-12T06:40:51.556Z,13.30
2023-04-12T06:43:20.518Z,13.40
2023-04-12T06:45:49.835Z,13.40
2023-04-12T06:48:18.279Z,13.40
2023-04-12T06:50:48.033Z,13.50
2023-04-12T06:53:16.604Z,13.60
2023-04-12T06:55:45.024Z,13.60
2023-04-12T06:58:13.553Z,13.70
2023-04-12T07:00:42.159Z,13.80
2023-04-12T07:03:11.041Z,13.80
2023-04-12T07:05:40.065Z,13.90
2023-04-12T07:08:10.866Z,14.00
2023-04-12T07:10:39.322Z,14.10
2023-04-12T07:13:08.347Z,14.10
2023-04-12T07:15:36.948Z,14.20
2023-04-12T07:18:05.611Z,14.30
2023-04-12T07:20:34.055Z,14.40
2023-04-12T07:23:02.576Z,14.50
2023-04-12T07:25:32.388Z,14.60
2023-04-12T07:28:00.785Z,14.70
2023-04-12T07:30:29.181Z,14.80
2023-04-12T07:33:08.713Z,15.00
2023-04-12T07:35:45.094Z,15.10
2023-04-12T07:38:15.028Z,15.20
2023-04-12T07:40:49.249Z,15.40
2023-04-12T07:43:18.590Z,15.60
2023-04-12T07:45:47.086Z,15.70
2023-04-12T07:48:16.021Z,15.90
2023-04-12T07:50:44.736Z,16.30
2023-04-12T07:53:19.934Z,16.50
2023-04-12T07:55:49.853Z,16.80
2023-04-12T07:58:18.725Z,17.00
2023-04-12T08:00:47.429Z,17.20
2023-04-12T08:03:16.776Z,17.40
2023-04-12T08:05:45.685Z,17.60
2023-04-12T08:08:14.262Z,17.80
2023-04-12T08:10:42.705Z,18.00
2023-04-12T08:13:12.487Z,18.30
2023-04-12T08:15:41.084Z,18.60
2023-04-12T08:18:09.643Z,18.80
2023-04-12T08:20:40.517Z,19.00
2023-04-12T08:23:09.105Z,19.30
2023-04-12T08:25:37.498Z,19.50
2023-04-12T08:28:07.414Z,19.70
2023-04-12T08:30:37.343Z,19.90
2023-04-12T08:33:06.023Z,20.00
2023-04-12T08:35:34.558Z,20.00
2023-04-12T08:38:07.545Z,19.90
2023-04-12T08:40:36.611Z,19.50
2023-04-12T08:43:08.301Z,19.20
2023-04-12T08:45:38.789Z,19.10
2023-04-12T08:48:07.396Z,19.20
2023-04-12T08:50:35.820Z,19.00
2023-04-12T08:53:04.624Z,19.00
2023-04-12T08:55:33.049Z,18.60
2023-04-12T08:58:03.835Z,18.30
2023-04-12T09:00:32.368Z,18.00
2023-04-12T09:03:02.830Z,18.10
2023-04-12T09:05:31.915Z,18.00
2023-04-12T09:08:00.494Z,18.00
2023-04-12T09:10:33.549Z,18.00
2023-04-12T09:13:02.170Z,17.90
2023-04-12T09:15:30.875Z,18.00
2023-04-12T09:18:10.251Z,18.00
2023-04-12T09:20:39.164Z,17.70
2023-04-12T09:23:20.374Z,17.70
2023-04-12T09:25:52.042Z,17.80
2023-04-12T09:28:21.809Z,17.80
2023-04-12T09:30:52.581Z,17.80
2023-04-12T09:33:23.495Z,17.90
2023-04-12T09:35:52.240Z,17.70
2023-04-12T09:38:20.645Z,17.70
2023-04-12T09:40:50.274Z,17.70
2023-04-12T09:43:18.808Z,17.60
2023-04-12T09:45:47.251Z,17.40
2023-04-12T09:48:19.832Z,17.40
2023-04-12T09:50:49.643Z,17.30
2023-04-12T09:53:19.460Z,17.20
2023-04-12T09:55:48.769Z,17.30
2023-04-12T09:58:18.982Z,17.30
2023-04-12T10:00:48.136Z,17.20
2023-04-12T10:03:16.939Z,17.00
2023-04-12T10:05:45.575Z,16.80
2023-04-12T10:08:17.878Z,16.70
2023-04-12T10:10:46.592Z,16.70
2023-04-12T10:13:15.184Z,16.80
2023-04-12T10:15:44.726Z,16.70
2023-04-12T10:18:15.143Z,16.80
2023-04-12T10:20:44.141Z,16.80
2023-04-12T10:23:13.033Z,16.80
2023-04-12T10:25:43.985Z,16.80
2023-04-12T10:28:16.026Z,16.90
2023-04-12T10:30:44.504Z,17.10
2023-04-12T10:33:14.726Z,17.10
2023-04-12T10:35:56.670Z,17.20
2023-04-12T10:38:27.239Z,17.20
2023-04-12T10:41:09.764Z,17.40
2023-04-12T10:43:38.178Z,17.40
2023-04-12T10:46:07.087Z,17.60
2023-04-12T10:48:36.260Z,17.60
2023-04-12T10:51:22.693Z,17.60
2023-04-12T10:53:52.196Z,17.50
2023-04-12T10:56:38.017Z,17.60
2023-04-12T10:59:07.169Z,17.70
2023-04-12T11:01:38.301Z,17.60
2023-04-12T11:04:12.479Z,17.60
2023-04-12T11:06:58.949Z,17.60
2023-04-12T11:09:28.644Z,17.80
2023-04-12T11:12:13.210Z,17.80
2023-04-12T11:14:45.457Z,17.70
2023-04-12T11:17:26.642Z,17.70
2023-04-12T11:19:56.946Z,17.70
2023-04-12T11:22:26.402Z,17.70
2023-04-12T11:24:55.451Z,17.70
2023-04-12T11:27:25.769Z,17.70
2023-04-12T11:29:55.738Z,17.70
2023-04-12T11:32:26.408Z,17.80
2023-04-12T11:34:55.522Z,17.90
2023-04-12T11:37:24.294Z,18.10
2023-04-12T11:39:53.335Z,18.10
2023-04-12T11:42:22.446Z,18.10
2023-04-12T11:44:58.931Z,18.10
2023-04-12T11:47:30.338Z,18.20
2023-04-12T11:49:59.975Z,18.30
2023-04-12T11:52:31.767Z,18.40
2023-04-12T11:55:01.425Z,18.50
2023-04-12T11:57:31.193Z,18.40
2023-04-12T12:00:01.230Z,18.40
2023-04-12T12:02:34.531Z,18.40
2023-04-12T12:05:07.755Z,18.40
2023-04-12T12:07:37.340Z,18.40
2023-04-12T12:10:06.408Z,18.50
2023-04-12T12:12:35.089Z,18.50
2023-04-12T12:15:05.271Z,18.50
2023-04-12T12:17:37.973Z,18.50
2023-04-12T12:20:07.085Z,18.50
2023-04-12T12:22:35.644Z,18.40
2023-04-12T12:25:04.094Z,18.50
2023-04-12T12:27:35.441Z,18.50
2023-04-12T12:30:06.045Z,18.70
2023-04-12T12:32:35.121Z,18.50
2023-04-12T12:35:04.268Z,18.30
2023-04-12T12:37:32.697Z,18.10
2023-04-12T12:40:01.652Z,18.20
2023-04-12T12:42:31.117Z,18.00
2023-04-12T12:44:59.597Z,17.90
2023-04-12T12:47:29.614Z,17.70
2023-04-12T12:49:58.219Z,17.70
2023-04-12T12:52:26.706Z,17.70
2023-04-12T12:54:55.105Z,17.70
2023-04-12T12:57:23.577Z,17.70
2023-04-12T12:59:52.057Z,17.70
2023-04-12T13:02:21.083Z,17.70
2023-04-12T13:04:51.152Z,17.60
2023-04-12T13:07:19.707Z,17.60
2023-04-12T13:09:48.310Z,17.60
2023-04-12T13:12:17.099Z,17.70
2023-04-12T13:14:45.519Z,17.50
2023-04-12T13:17:13.943Z,17.50
2023-04-12T13:19:42.334Z,17.50
2023-04-12T13:22:12.268Z,17.50
2023-04-12T13:24:40.972Z,17.30
2023-04-12T13:27:09.863Z,17.20
2023-04-12T13:29:38.887Z,17.00
2023-04-12T13:32:07.326Z,17.10
2023-04-12T13:34:35.909Z,17.10
2023-04-12T13:37:04.425Z,17.10
2023-04-12T13:39:35.370Z,17.20
2023-04-12T13:42:03.776Z,17.30
2023-04-12T13:44:32.300Z,17.40
2023-04-12T13:47:00.773Z,17.40
2023-04-12T13:49:29.300Z,17.40
2023-04-12T13:51:57.916Z,17.40
2023-04-12T13:54:26.366Z,17.50
2023-04-12T13:56:57.671Z,17.40
2023-04-12T13:59:26.148Z,17.40
2023-04-12T14:01:54.819Z,17.30
2023-04-12T14:04:23.822Z,17.40
2023-04-12T14:06:52.427Z,17.40
2023-04-12T14:09:25.186Z,17.60
2023-04-12T14:11:55.298Z,17.60
2023-04-12T14:14:26.198Z,17.40
2023-04-12T14:16:57.241Z,17.30
2023-04-12T14:19:26.664Z,17.40
2023-04-12T14:21:55.245Z,17.40
2023-04-12T14:24:24.091Z,17.40
2023-04-12T14:26:53.483Z,17.40
2023-04-12T14:29:21.924Z,17.40
2023-04-12T14:31:51.739Z,17.30
2023-04-12T14:34:20.249Z,17.30
2023-04-12T14:36:48.662Z,17.40
2023-04-12T14:39:17.078Z,17.40
2023-04-12T14:41:45.538Z,17.40
2023-04-12T14:44:13.961Z,17.40
2023-04-12T14:46:42.559Z,17.40
2023-04-12T14:49:13.596Z,17.50
2023-04-12T14:51:42.024Z,17.40
2023-04-12T14:54:10.490Z,17.40
2023-04-12T14:56:45.965Z,17.60
2023-04-12T14:59:18.083Z,17.60
2023-04-12T15:01:46.698Z,17.70
2023-04-12T15:04:16.685Z,17.60
2023-04-12T15:06:45.501Z,17.60
2023-04-12T15:09:15.838Z,17.50
2023-04-12T15:11:46.554Z,17.60
2023-04-12T15:14:18.240Z,17.60
2023-04-12T15:16:49.202Z,17.60
2023-04-12T15:19:22.721Z,17.50
2023-04-12T15:21:52.432Z,17.50
2023-04-12T15:24:21.318Z,17.40
2023-04-12T15:26:50.933Z,17.50
2023-04-12T15:29:19.944Z,17.40
2023-04-12T15:31:48.547Z,17.40
2023-04-12T15:34:17.588Z,17.40
2023-04-12T15:36:47.436Z,17.40
2023-04-12T15:39:16.120Z,17.30
2023-04-12T15:41:44.663Z,17.30
2023-04-12T15:44:14.129Z,17.30
2023-04-12T15:46:42.657Z,17.30
2023-04-12T15:49:11.486Z,17.30
2023-04-12T15:51:39.957Z,17.20
2023-04-12T15:54:09.868Z,17.30
2023-04-12T15:56:38.769Z,17.40
2023-04-12T15:59:09.203Z,17.40
2023-04-12T16:01:38.153Z,17.40
2023-04-12T16:04:07.140Z,17.40
2023-04-12T16:06:38.080Z,17.40
2023-04-12T16:09:06.804Z,17.40
2023-04-12T16:11:36.702Z,17.40
2023-04-12T16:14:05.305Z,17.40
2023-04-12T16:16:33.918Z,17.30
2023-04-12T16:19:02.353Z,17.30
2023-04-12T16:21:31.040Z,17.30
2023-04-12T16:23:59.499Z,17.20
2023-04-12T16:26:28.474Z,17.20
2023-04-12T16:28:58.552Z,17.20
2023-04-12T16:31:27.388Z,17.20
2023-04-12T16:33:55.974Z,17.20
2023-04-12T16:36:24.659Z,17.20
2023-04-12T16:38:55.230Z,17.20
2023-04-12T16:41:23.788Z,17.20
2023-04-12T16:43:53.945Z,17.20
2023-04-12T16:46:23.976Z,17.10
2023-04-12T16:48:52.516Z,17.10
2023-04-12T16:51:21.192Z,17.10
2023-04-12T16:53:49.638Z,17.00
2023-04-12T16:56:18.499Z,17.00
2023-04-12T16:58:48.979Z,17.00
2023-04-12T17:01:17.892Z,16.90
2023-04-12T17:03:48.900Z,17.00
2023-04-12T17:06:19.045Z,16.90
2023-04-12T17:08:49.138Z,17.00
2023-04-12T17:11:17.481Z,16.90
2023-04-12T17:13:46.404Z,16.80
2023-04-12T17:16:16.392Z,16.70
2023-04-12T17:18:44.844Z,16.60
2023-04-12T17:21:15.554Z,16.60
2023-04-12T17:23:44.142Z,16.60
2023-04-12T17:26:17.302Z,16.50
2023-04-12T17:28:46.003Z,16.50
2023-04-12T17:31:14.668Z,16.70
2023-04-12T17:33:43.231Z,16.60
2023-04-12T17:36:12.064Z,16.60
2023-04-12T17:38:41.925Z,16.50
2023-04-12T17:41:10.466Z,16.40
2023-04-12T17:43:38.947Z,16.30
2023-04-12T17:46:07.460Z,16.30
2023-04-12T17:48:36.094Z,16.30
2023-04-12T17:51:05.593Z,16.20
2023-04-12T17:53:34.038Z,16.20
2023-04-12T17:56:05.186Z,16.20
2023-04-12T17:58:34.093Z,16.10
2023-04-12T18:01:02.520Z,16.10
2023-04-12T18:03:31.647Z,16.00
2023-04-12T18:06:00.897Z,15.90
2023-04-12T18:08:29.279Z,15.90
2023-04-12T18:10:57.796Z,15.80
2023-04-12T18:13:28.143Z,15.80
2023-04-12T18:15:56.569Z,15.70
2023-04-12T18:18:25.067Z,15.60
2023-04-12T18:20:53.561Z,15.60
2023-04-12T18:23:22.137Z,15.60
2023-04-12T18:25:50.585Z,15.60
2023-04-12T18:28:19.109Z,15.60
2023-04-12T18:30:49.576Z,15.60
2023-04-12T18:33:18.082Z,15.60
2023-04-12T18:35:46.536Z,15.60
2023-04-12T18:38:14.961Z,15.50
2023-04-12T18:40:43.373Z,15.50
2023-04-12T18:43:11.847Z,15.50
2023-04-12T18:45:41.200Z,15.50
2023-04-12T18:48:11.482Z,15.40
2023-04-12T18:50:40.438Z,15.40
2023-04-12T18:53:09.035Z,15.50
2023-04-12T18:55:37.560Z,15.40
2023-04-12T18:58:07.035Z,15.40
2023-04-12T19:00:35.560Z,15.50
2023-04-12T19:03:04.166Z,15.50
2023-04-12T19:05:35.570Z,15.50
2023-04-12T19:08:04.091Z,15.40
2023-04-12T19:10:33.731Z,15.50
2023-04-12T19:13:02.383Z,15.40
2023-04-12T19:15:34.733Z,15.40
2023-04-12T19:18:16.094Z,15.40
2023-04-12T19:20:47.897Z,15.40
2023-04-12T19:23:16.629Z,15.40
2023-04-12T19:25:47.361Z,15.40
2023-04-12T19:28:27.314Z,15.40
2023-04-12T19:30:59.383Z,15.40
2023-04-12T19:33:33.653Z,15.50
2023-04-12T19:36:08.522Z,15.50
2023-04-12T19:38:42.179Z,15.50
2023-04-12T19:41:14.551Z,15.50
2023-04-12T19:43:43.185Z,15.50
2023-04-12T19:46:17.853Z,15.50
2023-04-12T19:51:36.118Z,15.30
2023-04-12T19:54:04.857Z,15.30
2023-04-12T19:56:35.649Z,15.20
2023-04-12T19:59:07.759Z,15.20
2023-04-12T20:01:49.429Z,15.10
2023-04-12T20:04:22.777Z,15.10
2023-04-12T20:06:57.925Z,15.10
2023-04-12T20:09:32.850Z,15.00
2023-04-12T20:12:04.692Z,14.90
2023-04-12T20:14:36.999Z,14.80
2023-04-12T20:17:09.283Z,14.90
2023-04-12T20:19:40.158Z,14.90
2023-04-12T20:22:17.369Z,15.00
2023-04-12T20:24:51.100Z,14.90
2023-04-12T20:27:25.530Z,14.90
2023-04-12T20:29:56.469Z,14.90
2023-04-12T20:32:27.796Z,14.90
2023-04-12T20:34:58.983Z,14.90
2023-04-12T20:37:31.713Z,14.90
2023-04-12T20:40:07.001Z,14.70
2023-04-12T20:42:40.474Z,14.70
2023-04-12T20:45:12.994Z,14.80
2023-04-12T20:47:45.031Z,14.80
2023-04-12T20:50:17.074Z,14.70
2023-04-12T20:52:57.156Z,14.70
2023-04-12T20:55:35.213Z,14.70
2023-04-12T20:58:08.086Z,14.60
2023-04-12T21:00:39.960Z,14.60
2023-04-12T21:03:12.421Z,14.70
2023-04-12T21:05:47.636Z,14.60
2023-04-12T21:08:21.313Z,14.50
2023-04-12T21:10:50.847Z,14.30
2023-04-12T21:13:22.056Z,14.10
2023-04-12T21:15:52.717Z,14.00
2023-04-12T21:18:22.773Z,13.90
2023-04-12T21:20:53.204Z,13.90
2023-04-12T21:23:23.913Z,13.80
2023-04-12T21:25:53.657Z,13.70
2023-04-12T21:28:22.976Z,13.80
2023-04-12T21:30:55.821Z,13.70
2023-04-12T21:33:26.811Z,13.60
2023-04-12T21:35:57.316Z,13.60
2023-04-12T21:38:28.446Z,13.50
2023-04-12T21:40:58.933Z,13.60
2023-04-12T21:43:27.389Z,13.60
2023-04-12T21:45:55.847Z,13.60
2023-04-12T21:48:24.266Z,13.60
2023-04-12T21:50:52.685Z,13.60
2023-04-12T21:53:21.127Z,13.60
2023-04-12T21:55:51.068Z,13.60
2023-04-12T21:58:19.574Z,13.60
2023-04-12T22:00:48.421Z,13.50
2023-04-12T22:03:17.333Z,13.50
2023-04-12T22:05:51.062Z,13.50
2023-04-12T22:08:25.958Z,13.50
2023-04-12T22:10:55.894Z,13.50
2023-04-12T22:13:24.834Z,13.50
2023-04-12T22:15:53.842Z,13.50
2023-04-12T22:18:22.296Z,13.40
2023-04-12T22:20:51.038Z,13.40
2023-04-12T22:23:19.505Z,13.40
2023-04-12T22:25:49.556Z,13.40
2023-04-12T22:28:19.446Z,13.40
2023-04-12T22:30:48.550Z,13.40
2023-04-12T22:33:17.069Z,13.40
2023-04-12T22:35:45.515Z,13.30
2023-04-12T22:38:14.873Z,13.30
2023-04-12T22:40:43.388Z,13.40
2023-04-12T22:43:18.296Z,13.40
2023-04-12T22:45:48.229Z,13.40
2023-04-12T22:48:16.633Z,13.40
2023-04-12T22:50:45.919Z,13.40
2023-04-12T22:53:15.924Z,13.40
2023-04-12T22:55:45.047Z,13.40
2023-04-12T22:58:13.612Z,13.50
2023-04-12T23:00:41.997Z,13.60
2023-04-12T23:03:11.982Z,13.70
2023-04-12T23:05:44.731Z,13.70
2023-04-12T23:08:14.525Z,13.80
2023-04-12T23:10:43.276Z,13.90
2023-04-12T23:13:12.094Z,13.90
2023-04-12T23:15:41.608Z,13.90
2023-04-12T23:18:11.692Z,13.80
2023-04-12T23:20:40.412Z,13.80
2023-04-12T23:23:08.804Z,13.80
2023-04-12T23:25:41.353Z,13.90
2023-04-12T23:28:13.234Z,13.80
2023-04-12T23:30:43.461Z,13.80
2023-04-12T23:33:13.521Z,13.90
2023-04-12T23:35:42.397Z,13.90
2023-04-12T23:38:15.814Z,14.10
2023-04-12T23:40:44.524Z,14.10
2023-04-12T23:43:12.931Z,14.20
2023-04-12T23:45:41.584Z,14.20
2023-04-12T23:48:10.067Z,14.10
2023-04-12T23:50:40.341Z,14.10
2023-04-12T23:53:08.908Z,14.10
2023-04-12T23:55:37.382Z,14.00
2023-04-12T23:58:05.937Z,14.10
